createdAt,value
2018-11-07T00:02:22.948Z,11.80
2018-11-07T00:04:54.985Z,12.07
2018-11-07T00:07:26.958Z,11.23
2018-11-07T00:10:11.693Z,11.47
2018-11-07T00:12:43.500Z,11.83
2018-11-07T00:15:16.669Z,11.50
2018-11-07T00:17:51.294Z,11.20
2018-11-07T00:20:25.778Z,11.70
2018-11-07T00:22:57.722Z,12.77
2018-11-07T00:25:29.536Z,12.60
2018-11-07T00:28:03.159Z,12.20
2018-11-07T00:30:35.013Z,13.60
2018-11-07T00:33:07.109Z,13.67
2018-11-07T00:35:38.936Z,12.17
2018-11-07T00:38:10.722Z,12.40
2018-11-07T00:40:42.533Z,12.80
2018-11-07T00:43:14.342Z,12.77
2018-11-07T00:45:46.164Z,12.00
2018-11-07T00:48:17.958Z,12.40
2018-11-07T00:50:49.787Z,11.53
2018-11-07T00:53:21.612Z,13.23
2018-11-07T00:55:53.549Z,12.93
2018-11-07T00:58:25.347Z,12.93
2018-11-07T01:00:57.423Z,12.80
2018-11-07T01:03:29.205Z,12.50
2018-11-07T01:06:01.026Z,14.03
2018-11-07T01:08:32.837Z,12.30
2018-11-07T01:11:04.705Z,11.73
2018-11-07T01:13:36.796Z,13.40
2018-11-07T01:16:08.934Z,12.67
2018-11-07T01:18:40.737Z,14.07
2018-11-07T01:21:12.578Z,11.17
2018-11-07T01:23:44.356Z,12.50
2018-11-07T01:26:21.869Z,11.13
2018-11-07T01:28:53.679Z,12.50
2018-11-07T01:31:26.129Z,11.67
2018-11-07T01:33:57.934Z,12.60
2018-11-07T01:36:29.739Z,13.00
2018-11-07T01:39:01.523Z,12.77
2018-11-07T01:41:33.344Z,12.20
2018-11-07T01:44:05.133Z,14.07
2018-11-07T01:46:39.394Z,12.77
2018-11-07T01:49:11.234Z,12.47
2018-11-07T01:51:43.061Z,12.43
2018-11-07T01:54:17.175Z,13.10
2018-11-07T01:56:46.716Z,11.80
2018-11-07T01:59:18.511Z,11.60
2018-11-07T02:01:50.330Z,12.77
2018-11-07T02:04:22.123Z,12.63
2018-11-07T02:06:53.946Z,13.70
2018-11-07T02:09:25.755Z,13.47
2018-11-07T02:11:57.575Z,11.57
2018-11-07T02:14:29.378Z,13.00
2018-11-07T02:17:01.295Z,11.03
2018-11-07T02:19:33.076Z,11.70
2018-11-07T02:22:04.902Z,11.47
2018-11-07T02:24:36.705Z,11.97
2018-11-07T02:27:08.689Z,12.07
2018-11-07T02:29:40.488Z,11.40
2018-11-07T02:32:12.359Z,11.17
2018-11-07T02:34:44.184Z,12.03
2018-11-07T02:37:16.001Z,13.13
2018-11-07T02:39:47.778Z,11.60
2018-11-07T02:42:19.595Z,11.77
2018-11-07T02:44:51.424Z,12.63
2018-11-07T02:47:23.258Z,10.93
2018-11-07T02:49:55.056Z,10.97
2018-11-07T02:52:27.000Z,11.87
2018-11-07T02:54:58.856Z,11.43
2018-11-07T02:57:30.729Z,11.40
2018-11-07T03:00:02.519Z,12.67
2018-11-07T03:02:34.329Z,11.10
2018-11-07T03:05:06.163Z,10.90
2018-11-07T03:07:38.753Z,12.13
2018-11-07T03:10:12.627Z,11.53
2018-11-07T03:12:44.426Z,12.83
2018-11-07T03:15:16.215Z,12.47
2018-11-07T03:17:48.064Z,11.73
2018-11-07T03:20:19.855Z,10.77
2018-11-07T03:22:51.701Z,12.80
2018-11-07T03:25:23.503Z,11.70
2018-11-07T03:27:55.380Z,11.30
2018-11-07T03:30:27.183Z,12.23
2018-11-07T03:32:58.986Z,12.13
2018-11-07T03:35:30.785Z,10.83
2018-11-07T03:38:02.610Z,10.90
2018-11-07T03:40:34.399Z,10.67
2018-11-07T03:43:06.691Z,10.90
2018-11-07T03:45:55.915Z,11.30
2018-11-07T03:48:29.102Z,10.67
2018-11-07T03:51:01.443Z,11.77
2018-11-07T03:53:33.277Z,11.03
2018-11-07T03:56:05.085Z,10.90
2018-11-07T03:58:36.881Z,11.40
2018-11-07T04:01:08.721Z,11.10
2018-11-07T04:03:42.419Z,12.63
2018-11-07T04:06:14.241Z,11.30
2018-11-07T04:08:48.304Z,11.30
2018-11-07T04:11:20.653Z,10.17
2018-11-07T04:13:52.453Z,10.70
2018-11-07T04:16:24.333Z,10.93
2018-11-07T04:18:56.169Z,10.93
2018-11-07T04:21:27.965Z,10.30
2018-11-07T04:24:06.401Z,10.57
2018-11-07T04:26:38.938Z,10.67
2018-11-07T04:29:10.753Z,11.47
2018-11-07T04:31:42.822Z,10.90
2018-11-07T04:34:17.651Z,10.63
2018-11-07T04:36:52.285Z,11.67
2018-11-07T04:39:24.226Z,11.93
2018-11-07T04:42:02.093Z,11.07
2018-11-07T04:44:34.030Z,10.30
2018-11-07T04:47:06.052Z,10.30
2018-11-07T04:49:37.946Z,11.47
2018-11-07T04:52:09.814Z,10.70
2018-11-07T04:54:41.729Z,9.70
2018-11-07T04:57:13.658Z,10.80
2018-11-07T04:59:45.576Z,10.37
2018-11-07T05:02:17.442Z,9.93
2018-11-07T05:04:49.246Z,11.07
2018-11-07T05:07:21.177Z,9.77
2018-11-07T05:09:53.001Z,10.67
2018-11-07T05:12:24.794Z,10.63
2018-11-07T05:14:56.641Z,11.30
2018-11-07T05:17:28.521Z,12.00
2018-11-07T05:20:00.410Z,11.17
2018-11-07T05:22:32.245Z,10.03
2018-11-07T05:25:04.108Z,9.20
2018-11-07T05:27:35.934Z,9.07
2018-11-07T05:30:09.869Z,10.70
2018-11-07T05:32:42.066Z,10.70
2018-11-07T05:35:13.966Z,10.60
2018-11-07T05:37:45.894Z,11.67
2018-11-07T05:40:17.706Z,11.90
2018-11-07T05:42:49.484Z,10.37
2018-11-07T05:45:21.453Z,11.80
2018-11-07T05:47:53.296Z,10.63
2018-11-07T05:50:25.164Z,9.37
2018-11-07T05:52:56.949Z,9.80
2018-11-07T05:55:28.828Z,10.53
2018-11-07T05:58:00.630Z,10.10
2018-11-07T06:00:32.500Z,10.00
2018-11-07T06:03:04.433Z,9.43
2018-11-07T06:05:36.385Z,10.23
2018-11-07T06:08:08.435Z,9.73
2018-11-07T06:10:40.323Z,11.10
2018-11-07T06:13:12.103Z,10.80
2018-11-07T06:15:47.653Z,9.80
2018-11-07T06:18:19.460Z,11.57
2018-11-07T06:20:51.323Z,12.37
2018-11-07T06:23:23.314Z,11.07
2018-11-07T06:25:55.148Z,11.23
2018-11-07T06:28:26.980Z,10.93
2018-11-07T06:30:59.015Z,11.57
2018-11-07T06:33:30.854Z,12.50
2018-11-07T06:36:03.267Z,12.07
2018-11-07T06:38:35.094Z,10.73
2018-11-07T06:41:06.960Z,10.67
2018-11-07T06:43:38.831Z,9.87
2018-11-07T06:46:10.799Z,11.07
2018-11-07T06:48:42.677Z,10.27
2018-11-07T06:51:14.506Z,10.47
2018-11-07T06:53:46.362Z,10.57
2018-11-07T06:56:18.172Z,9.50
2018-11-07T06:58:50.061Z,9.80
2018-11-07T07:01:21.954Z,10.90
2018-11-07T07:03:53.868Z,9.40
2018-11-07T07:06:25.836Z,9.83
2018-11-07T07:08:57.745Z,11.90
2018-11-07T07:11:29.701Z,12.60
2018-11-07T07:14:01.527Z,13.10
2018-11-07T07:16:33.484Z,13.60
2018-11-07T07:19:05.314Z,14.27
2018-11-07T07:21:37.209Z,15.50
2018-11-07T07:24:09.180Z,15.90
2018-11-07T07:26:41.010Z,16.17
2018-11-07T07:29:12.970Z,16.03
2018-11-07T07:31:45.061Z,14.00
2018-11-07T07:34:17.086Z,14.20
2018-11-07T07:36:49.048Z,13.97
2018-11-07T07:39:20.902Z,13.30
2018-11-07T07:41:52.927Z,13.23
2018-11-07T07:44:24.777Z,12.87
2018-11-07T07:46:56.664Z,14.00
2018-11-07T07:49:28.518Z,14.73
2018-11-07T07:52:00.362Z,13.77
2018-11-07T07:54:32.245Z,12.47
2018-11-07T07:57:04.130Z,14.50
2018-11-07T07:59:36.022Z,14.20
2018-11-07T08:02:08.114Z,15.57
2018-11-07T08:04:40.031Z,15.90
2018-11-07T08:07:11.908Z,14.40
2018-11-07T08:09:43.728Z,13.53
2018-11-07T08:12:15.679Z,14.70
2018-11-07T08:14:47.501Z,15.30
2018-11-07T08:17:19.450Z,14.33
2018-11-07T08:19:51.500Z,13.93
2018-11-07T08:22:23.362Z,17.77
2018-11-07T08:24:55.187Z,15.73
2018-11-07T08:27:27.063Z,15.00
2018-11-07T08:29:58.875Z,15.00
2018-11-07T08:32:30.790Z,16.17
2018-11-07T08:35:02.719Z,15.77
2018-11-07T08:37:34.589Z,14.00
2018-11-07T08:40:09.214Z,15.33
2018-11-07T08:42:41.313Z,15.17
2018-11-07T08:45:13.984Z,14.90
2018-11-07T08:47:46.809Z,15.20
2018-11-07T08:50:22.299Z,14.63
2018-11-07T08:52:54.168Z,15.33
2018-11-07T08:55:26.048Z,20.07
2018-11-07T08:57:57.918Z,35.30
2018-11-07T09:00:29.792Z,17.80
2018-11-07T09:03:01.746Z,18.33
2018-11-07T09:05:33.584Z,16.80
2018-11-07T09:08:05.578Z,16.30
2018-11-07T09:10:37.313Z,16.33
2018-11-07T09:13:09.339Z,17.87
2018-11-07T09:15:41.212Z,16.20
2018-11-07T09:18:13.148Z,16.10
2018-11-07T09:20:45.053Z,15.90
2018-11-07T09:23:17.003Z,15.67
2018-11-07T09:25:48.915Z,16.60
2018-11-07T09:28:20.933Z,15.83
2018-11-07T09:30:52.736Z,15.83
2018-11-07T09:33:24.638Z,16.70
2018-11-07T09:35:56.467Z,16.83
2018-11-07T09:38:28.307Z,16.80
2018-11-07T09:41:00.143Z,19.60
2018-11-07T09:43:34.198Z,17.57
2018-11-07T09:46:03.834Z,15.93
2018-11-07T09:48:35.764Z,18.27
2018-11-07T09:51:07.771Z,16.13
2018-11-07T09:53:39.754Z,17.07
2018-11-07T09:56:11.643Z,17.50
2018-11-07T09:58:43.626Z,17.60
2018-11-07T10:01:15.360Z,16.43
2018-11-07T10:03:47.252Z,16.43
2018-11-07T10:06:19.156Z,15.33
2018-11-07T10:08:51.062Z,15.73
2018-11-07T10:11:22.966Z,14.70
2018-11-07T10:13:54.854Z,16.07
2018-11-07T10:16:26.898Z,15.80
2018-11-07T10:18:58.764Z,14.30
2018-11-07T10:21:30.597Z,14.77
2018-11-07T10:24:02.528Z,14.43
2018-11-07T10:26:34.534Z,14.30
2018-11-07T10:29:06.934Z,12.80
2018-11-07T10:31:38.580Z,14.27
2018-11-07T10:34:10.448Z,13.17
2018-11-07T10:36:42.319Z,13.23
2018-11-07T10:39:14.187Z,20.73
2018-11-07T10:41:46.080Z,13.37
2018-11-07T10:44:17.986Z,12.87
2018-11-07T10:46:49.791Z,11.93
2018-11-07T10:49:21.712Z,11.67
2018-11-07T10:51:53.627Z,12.07
2018-11-07T10:54:25.644Z,10.90
2018-11-07T10:56:57.474Z,12.03
2018-11-07T10:59:29.345Z,11.00
2018-11-07T11:02:22.772Z,10.67
2018-11-07T11:04:54.682Z,11.63
2018-11-07T11:07:26.779Z,10.57
2018-11-07T11:09:58.746Z,10.43
2018-11-07T11:12:30.996Z,11.50
2018-11-07T11:15:02.847Z,28.03
2018-11-07T11:17:34.943Z,11.10
2018-11-07T11:20:08.896Z,9.70
2018-11-07T11:22:40.772Z,9.73
2018-11-07T11:25:12.918Z,10.33
2018-11-07T11:27:44.884Z,10.10
2018-11-07T11:30:16.789Z,9.67
2018-11-07T11:32:48.833Z,8.40
2018-11-07T11:35:20.860Z,8.63
2018-11-07T11:37:52.819Z,8.57
2018-11-07T11:40:25.674Z,7.80
2018-11-07T11:42:57.507Z,7.80
2018-11-07T11:45:29.378Z,8.20
2018-11-07T11:48:01.190Z,7.33
2018-11-07T11:50:33.237Z,7.70
2018-11-07T11:53:05.152Z,6.73
2018-11-07T11:55:37.061Z,6.40
2018-11-07T11:58:10.746Z,6.90
2018-11-07T12:00:43.314Z,7.10
2018-11-07T12:03:15.211Z,5.93
2018-11-07T12:05:47.094Z,6.30
2018-11-07T12:08:19.096Z,6.40
2018-11-07T12:10:51.074Z,5.97
2018-11-07T12:13:23.039Z,6.37
2018-11-07T12:15:54.908Z,5.27
2018-11-07T12:18:27.278Z,4.90
2018-11-07T12:20:59.214Z,6.17
2018-11-07T12:23:31.041Z,5.27
2018-11-07T12:26:02.905Z,5.07
2018-11-07T12:28:34.872Z,5.20
2018-11-07T12:31:07.189Z,5.57
2018-11-07T12:33:39.062Z,6.40
2018-11-07T12:36:10.923Z,6.20
2018-11-07T12:38:42.752Z,6.33
2018-11-07T12:41:14.778Z,5.50
2018-11-07T12:43:46.650Z,4.70
2018-11-07T12:46:18.507Z,5.83
2018-11-07T12:48:50.347Z,5.40
2018-11-07T12:51:22.356Z,6.20
2018-11-07T12:53:54.477Z,5.47
2018-11-07T12:56:26.387Z,4.53
2018-11-07T12:58:58.198Z,5.10
2018-11-07T13:01:30.056Z,4.50
2018-11-07T13:04:01.949Z,5.37
2018-11-07T13:06:34.679Z,5.90
2018-11-07T13:09:09.437Z,5.60
2018-11-07T13:11:42.038Z,5.60
2018-11-07T13:14:13.897Z,5.10
2018-11-07T13:16:45.823Z,5.80
2018-11-07T13:19:17.626Z,5.03
2018-11-07T13:21:49.506Z,6.07
2018-11-07T13:24:21.371Z,5.00
2018-11-07T13:26:53.229Z,4.63
2018-11-07T13:29:25.079Z,5.70
2018-11-07T13:31:57.022Z,7.10
2018-11-07T13:34:28.830Z,6.23
2018-11-07T13:37:00.816Z,6.37
2018-11-07T13:39:32.656Z,7.90
2018-11-07T13:42:04.535Z,8.57
2018-11-07T13:44:36.399Z,7.43
2018-11-07T13:47:08.241Z,8.57
2018-11-07T13:49:40.081Z,7.67
2018-11-07T13:52:11.957Z,7.73
2018-11-07T13:54:43.879Z,8.47
2018-11-07T13:57:15.768Z,8.53
2018-11-07T13:59:47.745Z,9.07
2018-11-07T14:02:19.651Z,10.43
2018-11-07T14:04:51.517Z,10.43
2018-11-07T14:07:23.486Z,11.33
2018-11-07T14:09:55.607Z,10.30
2018-11-07T14:12:27.435Z,10.60
2018-11-07T14:14:59.374Z,9.60
2018-11-07T14:17:31.261Z,8.20
2018-11-07T14:20:03.243Z,9.37
2018-11-07T14:22:35.178Z,8.80
2018-11-07T14:25:08.077Z,10.07
2018-11-07T14:27:40.201Z,9.63
2018-11-07T14:30:16.727Z,11.00
2018-11-07T14:32:52.083Z,11.63
2018-11-07T14:35:24.286Z,13.90
2018-11-07T14:37:57.177Z,12.50
2018-11-07T14:40:29.189Z,12.17
2018-11-07T14:43:01.127Z,12.77
2018-11-07T14:45:32.958Z,13.60
2018-11-07T14:48:04.871Z,12.03
2018-11-07T14:50:36.724Z,12.63
2018-11-07T14:53:08.900Z,12.50
2018-11-07T14:55:40.783Z,12.37
2018-11-07T14:58:12.768Z,11.97
2018-11-07T15:00:44.626Z,13.97
2018-11-07T15:03:16.531Z,13.80
2018-11-07T15:05:48.462Z,15.00
2018-11-07T15:08:21.101Z,14.00
2018-11-07T15:10:53.005Z,14.33
2018-11-07T15:13:24.913Z,14.30
2018-11-07T15:15:57.073Z,15.50
2018-11-07T15:18:29.279Z,15.97
2018-11-07T15:21:01.129Z,15.20
2018-11-07T15:23:33.003Z,16.77
2018-11-07T15:26:07.729Z,15.47
2018-11-07T15:28:39.632Z,14.60
2018-11-07T15:31:11.574Z,16.23
2018-11-07T15:33:43.586Z,15.70
2018-11-07T15:36:15.671Z,15.80
2018-11-07T15:38:47.457Z,12.87
2018-11-07T15:41:19.348Z,14.47
2018-11-07T15:43:51.217Z,16.00
2018-11-07T15:46:23.100Z,15.43
2018-11-07T15:48:54.987Z,14.37
2018-11-07T15:51:35.925Z,13.40
2018-11-07T15:54:08.705Z,14.23
2018-11-07T15:56:40.615Z,12.90
2018-11-07T15:59:12.445Z,15.40
2018-11-07T16:01:44.325Z,14.77
2018-11-07T16:04:16.201Z,13.53
2018-11-07T16:06:48.122Z,14.60
2018-11-07T16:09:20.029Z,25.40
2018-11-07T16:11:51.923Z,15.20
2018-11-07T16:14:23.907Z,14.00
2018-11-07T16:16:55.728Z,14.80
2018-11-07T16:19:27.557Z,15.27
2018-11-07T16:21:59.449Z,14.77
2018-11-07T16:24:31.320Z,15.00
2018-11-07T16:27:03.348Z,14.47
2018-11-07T16:29:35.253Z,17.57
2018-11-07T16:32:07.421Z,20.23
2018-11-07T16:34:39.300Z,20.10
2018-11-07T16:37:11.225Z,21.60
2018-11-07T16:39:43.339Z,18.47
2018-11-07T16:42:15.181Z,20.33
2018-11-07T16:44:47.108Z,22.20
2018-11-07T16:47:18.970Z,19.47
2018-11-07T16:49:50.816Z,19.87
2018-11-07T16:52:22.663Z,22.23
2018-11-07T16:54:54.835Z,24.27
2018-11-07T16:57:26.803Z,25.67
2018-11-07T16:59:58.676Z,27.50
2018-11-07T17:02:32.699Z,28.17
2018-11-07T17:05:04.642Z,27.30
2018-11-07T17:07:36.428Z,29.63
2018-11-07T17:10:09.804Z,28.40
2018-11-07T17:12:41.740Z,27.37
2018-11-07T17:15:13.660Z,28.00
2018-11-07T17:17:45.847Z,30.87
2018-11-07T17:20:17.750Z,30.63
2018-11-07T17:22:49.680Z,29.37
2018-11-07T17:25:22.036Z,33.07
2018-11-07T17:27:53.999Z,29.17
2018-11-07T17:30:25.797Z,33.90
2018-11-07T17:32:57.686Z,30.57
2018-11-07T17:35:29.666Z,31.70
2018-11-07T17:38:01.471Z,32.50
2018-11-07T17:40:33.311Z,32.40
2018-11-07T17:43:05.248Z,33.60
2018-11-07T17:45:37.133Z,32.90
2018-11-07T17:48:09.181Z,32.90
2018-11-07T17:50:40.858Z,32.63
2018-11-07T17:53:12.732Z,36.13
2018-11-07T17:55:44.545Z,33.00
2018-11-07T17:58:16.489Z,32.77
2018-11-07T18:00:48.812Z,36.47
2018-11-07T18:03:20.674Z,35.50
2018-11-07T18:05:55.591Z,35.87
2018-11-07T18:08:27.534Z,33.87
2018-11-07T18:10:59.554Z,32.53
2018-11-07T18:13:31.325Z,33.47
2018-11-07T18:16:03.193Z,35.00
2018-11-07T18:18:35.081Z,30.00
2018-11-07T18:21:06.878Z,32.67
2018-11-07T18:23:38.753Z,34.97
2018-11-07T18:26:10.660Z,36.63
2018-11-07T18:28:43.333Z,32.80
2018-11-07T18:31:15.438Z,37.07
2018-11-07T18:33:47.335Z,34.27
2018-11-07T18:36:19.243Z,37.30
2018-11-07T18:38:51.139Z,35.93
2018-11-07T18:41:22.997Z,37.40
2018-11-07T18:43:54.843Z,37.73
2018-11-07T18:46:26.726Z,33.70
2018-11-07T18:48:58.546Z,34.83
2018-11-07T18:51:30.443Z,35.70
2018-11-07T18:54:02.486Z,34.83
2018-11-07T18:56:34.343Z,33.73
2018-11-07T18:59:06.248Z,35.03
2018-11-07T19:01:38.142Z,33.03
2018-11-07T19:04:10.009Z,32.23
2018-11-07T19:06:41.876Z,31.37
2018-11-07T19:09:13.692Z,34.90
2018-11-07T19:11:45.555Z,31.97
2018-11-07T19:14:17.484Z,36.90
2018-11-07T19:16:49.532Z,34.47
2018-11-07T19:19:21.372Z,35.10
2018-11-07T19:21:53.221Z,36.97
2018-11-07T19:24:25.067Z,35.57
2018-11-07T19:26:57.112Z,34.67
2018-11-07T19:29:28.804Z,36.90
2018-11-07T19:32:00.679Z,32.97
2018-11-07T19:34:32.511Z,32.50
2018-11-07T19:37:04.427Z,32.97
2018-11-07T19:39:36.263Z,33.60
2018-11-07T19:42:08.549Z,29.00
2018-11-07T19:44:40.559Z,30.67
2018-11-07T19:47:12.441Z,30.03
2018-11-07T19:49:44.283Z,28.90
2018-11-07T19:52:16.140Z,34.50
2018-11-07T19:54:48.027Z,33.43
2018-11-07T19:57:19.914Z,32.60
2018-11-07T19:59:51.862Z,34.07
2018-11-07T20:02:23.737Z,33.67
2018-11-07T20:04:55.590Z,31.80
2018-11-07T20:07:27.498Z,32.90
2018-11-07T20:09:59.342Z,32.47
2018-11-07T20:12:31.345Z,34.10
2018-11-07T20:15:03.188Z,31.53
2018-11-07T20:17:35.073Z,34.27
2018-11-07T20:20:07.208Z,34.97
2018-11-07T20:22:39.141Z,33.20
2018-11-07T20:25:12.240Z,34.40
2018-11-07T20:27:44.786Z,34.60
2018-11-07T20:30:18.131Z,32.90
2018-11-07T20:32:49.995Z,31.03
2018-11-07T20:35:22.407Z,37.37
2018-11-07T20:37:54.243Z,38.23
2018-11-07T20:40:26.064Z,34.40
2018-11-07T20:42:57.979Z,35.63
2018-11-07T20:45:29.854Z,33.23
2018-11-07T20:48:01.771Z,33.73
2018-11-07T20:50:33.618Z,32.90
2018-11-07T20:53:05.525Z,32.53
2018-11-07T20:55:37.393Z,31.43
2018-11-07T20:58:09.402Z,32.00
2018-11-07T21:00:41.217Z,33.60
2018-11-07T21:03:13.057Z,33.80
2018-11-07T21:05:44.919Z,32.93
2018-11-07T21:08:16.792Z,33.40
2018-11-07T21:10:48.649Z,35.70
2018-11-07T21:13:20.501Z,33.70
2018-11-07T21:15:52.329Z,37.80
2018-11-07T21:18:24.166Z,37.37
2018-11-07T21:20:56.037Z,35.43
2018-11-07T21:23:27.977Z,35.33
2018-11-07T21:25:59.796Z,32.30
2018-11-07T21:28:31.753Z,31.70
2018-11-07T21:31:03.654Z,32.27
2018-11-07T21:33:35.770Z,33.63
2018-11-07T21:36:07.773Z,31.87
2018-11-07T21:38:39.611Z,30.90
2018-11-07T21:41:11.423Z,28.50
2018-11-07T21:43:43.590Z,27.80
2018-11-07T21:46:15.562Z,30.07
2018-11-07T21:48:47.405Z,30.43
2018-11-07T21:51:19.310Z,30.07
2018-11-07T21:53:51.189Z,31.00
2018-11-07T21:56:23.006Z,30.40
2018-11-07T21:58:54.883Z,31.70
2018-11-07T22:01:26.685Z,30.03
2018-11-07T22:03:58.526Z,31.50
2018-11-07T22:06:30.325Z,31.57
2018-11-07T22:09:02.199Z,29.70
2018-11-07T22:11:34.049Z,30.30
2018-11-07T22:14:06.412Z,28.43
2018-11-07T22:16:38.863Z,29.27
2018-11-07T22:19:10.681Z,30.90
2018-11-07T22:21:42.482Z,30.33
2018-11-07T22:24:14.390Z,30.90
2018-11-07T22:26:46.173Z,31.27
2018-11-07T22:29:18.045Z,31.20
2018-11-07T22:31:50.102Z,28.03
2018-11-07T22:34:21.931Z,28.03
2018-11-07T22:36:53.724Z,29.03
2018-11-07T22:39:25.541Z,26.87
2018-11-07T22:41:57.325Z,27.53
2018-11-07T22:44:29.159Z,27.40
2018-11-07T22:47:00.977Z,25.73
2018-11-07T22:49:32.801Z,27.73
2018-11-07T22:52:04.596Z,27.50
2018-11-07T22:54:36.488Z,26.40
2018-11-07T22:57:08.359Z,30.10
2018-11-07T22:59:40.214Z,26.37
2018-11-07T23:02:12.043Z,29.70
2018-11-07T23:04:44.875Z,26.73
2018-11-07T23:07:16.718Z,26.70
2018-11-07T23:09:48.563Z,26.70
2018-11-07T23:12:20.397Z,25.43
2018-11-07T23:14:53.829Z,26.23
2018-11-07T23:17:24.514Z,26.50
2018-11-07T23:19:56.367Z,25.60
2018-11-07T23:22:28.163Z,28.33
2018-11-07T23:25:00.035Z,26.60
2018-11-07T23:27:31.854Z,25.90
2018-11-07T23:30:03.679Z,29.20
2018-11-07T23:32:35.502Z,28.90
2018-11-07T23:35:08.005Z,28.63
2018-11-07T23:37:39.803Z,27.93
2018-11-07T23:40:11.606Z,26.93
2018-11-07T23:42:45.596Z,27.53
2018-11-07T23:45:17.555Z,24.67
2018-11-07T23:47:49.396Z,28.63
2018-11-07T23:50:21.221Z,27.00
2018-11-07T23:52:53.931Z,24.90
2018-11-07T23:55:44.556Z,27.50
2018-11-07T23:58:16.367Z,25.50
